sensor_id;sensor_type;location;lat;lon;timestamp;temperature;humidity
54006;DHT22;39919;38.160;-122.260;2023-04-03T02:46:33;13.10;71.40
54006;DHT22;39919;38.160;-122.260;2023-04-03T02:49:11;12.70;71.80
54006;DHT22;39919;38.160;-122.260;2023-04-03T02:54:57;12.40;72.20
54006;DHT22;39919;38.160;-122.260;2023-04-03T02:58:11;12.30;72.20
54006;DHT22;39919;38.160;-122.260;2023-04-03T03:00:53;12.20;72.40
54006;DHT22;39919;38.160;-122.260;2023-04-03T03:03:35;12.10;72.50
54006;DHT22;39919;38.160;-122.260;2023-04-03T03:06:29;12.00;73.20
54006;DHT22;39919;38.160;-122.260;2023-04-03T03:09:08;11.90;73.10
54006;DHT22;39919;38.160;-122.260;2023-04-03T03:11:45;11.80;73.20
54006;DHT22;39919;38.160;-122.260;2023-04-03T03:14:30;11.70;73.60
54006;DHT22;39919;38.160;-122.260;2023-04-03T03:17:02;11.70;73.70
54006;DHT22;39919;38.160;-122.260;2023-04-03T03:19:41;11.60;73.50
54006;DHT22;39919;38.160;-122.260;2023-04-03T03:22:29;11.50;73.50
54006;DHT22;39919;38.160;-122.260;2023-04-03T03:25:09;11.50;73.50
54006;DHT22;39919;38.160;-122.260;2023-04-03T03:27:53;11.40;73.40
54006;DHT22;39919;38.160;-122.260;2023-04-03T03:30:37;11.30;73.30
54006;DHT22;39919;38.160;-122.260;2023-04-03T03:33:06;11.30;73.40
54006;DHT22;39919;38.160;-122.260;2023-04-03T03:35:40;11.20;73.60
54006;DHT22;39919;38.160;-122.260;2023-04-03T03:38:23;11.10;73.90
54006;DHT22;39919;38.160;-122.260;2023-04-03T03:41:06;11.10;74.20
54006;DHT22;39919;38.160;-122.260;2023-04-03T03:43:53;11.00;74.50
54006;DHT22;39919;38.160;-122.260;2023-04-03T03:46:48;10.90;74.60
54006;DHT22;39919;38.160;-122.260;2023-04-03T03:49:19;10.90;75.00
54006;DHT22;39919;38.160;-122.260;2023-04-03T03:51:53;10.80;75.40
54006;DHT22;39919;38.160;-122.260;2023-04-03T03:54:23;10.70;75.70
54006;DHT22;39919;38.160;-122.260;2023-04-03T03:56:58;10.70;76.10
54006;DHT22;39919;38.160;-122.260;2023-04-03T03:59:38;10.60;76.50
54006;DHT22;39919;38.160;-122.260;2023-04-03T04:02:15;10.60;76.80
54006;DHT22;39919;38.160;-122.260;2023-04-03T04:04:54;10.50;77.20
54006;DHT22;39919;38.160;-122.260;2023-04-03T04:07:30;10.50;77.60
54006;DHT22;39919;38.160;-122.260;2023-04-03T04:10:11;10.40;77.90
54006;DHT22;39919;38.160;-122.260;2023-04-03T04:12:43;10.40;78.60
54006;DHT22;39919;38.160;-122.260;2023-04-03T04:15:23;10.30;79.00
54006;DHT22;39919;38.160;-122.260;2023-04-03T04:17:55;10.30;79.70
54006;DHT22;39919;38.160;-122.260;2023-04-03T04:20:29;10.30;79.90
54006;DHT22;39919;38.160;-122.260;2023-04-03T04:23:07;10.20;80.10
54006;DHT22;39919;38.160;-122.260;2023-04-03T04:25:48;10.20;80.50
54006;DHT22;39919;38.160;-122.260;2023-04-03T04:28:25;10.10;80.80
54006;DHT22;39919;38.160;-122.260;2023-04-03T04:30:54;10.10;81.10
54006;DHT22;39919;38.160;-122.260;2023-04-03T04:33:25;10.10;81.40
54006;DHT22;39919;38.160;-122.260;2023-04-03T04:35:57;10.10;81.90
54006;DHT22;39919;38.160;-122.260;2023-04-03T04:38:29;10.00;81.90
54006;DHT22;39919;38.160;-122.260;2023-04-03T04:41:06;10.00;82.30
54006;DHT22;39919;38.160;-122.260;2023-04-03T04:43:35;10.00;82.50
54006;DHT22;39919;38.160;-122.260;2023-04-03T04:46:10;9.90;82.70
54006;DHT22;39919;38.160;-122.260;2023-04-03T04:51:19;9.90;83.00
54006;DHT22;39919;38.160;-122.260;2023-04-03T04:54:03;9.90;83.80
54006;DHT22;39919;38.160;-122.260;2023-04-03T04:56:41;9.90;83.10
54006;DHT22;39919;38.160;-122.260;2023-04-03T04:59:17;9.80;83.10
54006;DHT22;39919;38.160;-122.260;2023-04-03T05:02:05;9.80;83.10
54006;DHT22;39919;38.160;-122.260;2023-04-03T05:04:37;9.80;83.10
54006;DHT22;39919;38.160;-122.260;2023-04-03T05:07:21;9.70;83.00
54006;DHT22;39919;38.160;-122.260;2023-04-03T05:09:53;9.70;83.00
54006;DHT22;39919;38.160;-122.260;2023-04-03T05:12:27;9.70;83.10
54006;DHT22;39919;38.160;-122.260;2023-04-03T05:14:56;9.60;83.00
54006;DHT22;39919;38.160;-122.260;2023-04-03T05:17:27;9.60;83.10
54006;DHT22;39919;38.160;-122.260;2023-04-03T05:19:59;9.60;82.90
54006;DHT22;39919;38.160;-122.260;2023-04-03T05:22:30;9.60;82.80
54006;DHT22;39919;38.160;-122.260;2023-04-03T05:25:10;9.50;82.60
54006;DHT22;39919;38.160;-122.260;2023-04-03T05:27:50;9.50;82.60
54006;DHT22;39919;38.160;-122.260;2023-04-03T05:30:23;9.50;83.00
54006;DHT22;39919;38.160;-122.260;2023-04-03T05:33:09;9.40;82.40
54006;DHT22;39919;38.160;-122.260;2023-04-03T05:35:46;9.40;82.40
54006;DHT22;39919;38.160;-122.260;2023-04-03T05:38:26;9.30;82.40
54006;DHT22;39919;38.160;-122.260;2023-04-03T05:40:56;9.30;82.40
54006;DHT22;39919;38.160;-122.260;2023-04-03T05:43:25;9.30;82.60
54006;DHT22;39919;38.160;-122.260;2023-04-03T05:45:59;9.30;82.80
54006;DHT22;39919;38.160;-122.260;2023-04-03T05:48:28;9.20;82.70
54006;DHT22;39919;38.160;-122.260;2023-04-03T05:51:13;9.20;82.70
54006;DHT22;39919;38.160;-122.260;2023-04-03T05:53:55;9.20;82.80
54006;DHT22;39919;38.160;-122.260;2023-04-03T05:56:31;9.20;82.80
54006;DHT22;39919;38.160;-122.260;2023-04-03T05:59:00;9.10;82.70
54006;DHT22;39919;38.160;-122.260;2023-04-03T06:01:30;9.10;82.80
54006;DHT22;39919;38.160;-122.260;2023-04-03T06:04:01;9.10;82.80
54006;DHT22;39919;38.160;-122.260;2023-04-03T06:06:51;9.10;82.90
54006;DHT22;39919;38.160;-122.260;2023-04-03T06:09:25;9.00;83.00
54006;DHT22;39919;38.160;-122.260;2023-04-03T06:11:55;9.00;83.10
54006;DHT22;39919;38.160;-122.260;2023-04-03T06:14:25;8.90;83.10
54006;DHT22;39919;38.160;-122.260;2023-04-03T06:16:54;9.00;83.30
54006;DHT22;39919;38.160;-122.260;2023-04-03T06:19:36;8.90;83.30
54006;DHT22;39919;38.160;-122.260;2023-04-03T06:22:05;8.90;83.30
54006;DHT22;39919;38.160;-122.260;2023-04-03T06:24:36;8.80;83.30
54006;DHT22;39919;38.160;-122.260;2023-04-03T06:27:08;8.80;83.40
54006;DHT22;39919;38.160;-122.260;2023-04-03T06:29:38;8.80;83.70
54006;DHT22;39919;38.160;-122.260;2023-04-03T06:32:07;8.80;83.80
54006;DHT22;39919;38.160;-122.260;2023-04-03T06:34:39;8.80;84.20
54006;DHT22;39919;38.160;-122.260;2023-04-03T06:37:13;8.80;84.30
54006;DHT22;39919;38.160;-122.260;2023-04-03T06:39:47;8.70;84.40
54006;DHT22;39919;38.160;-122.260;2023-04-03T06:42:19;8.70;84.70
54006;DHT22;39919;38.160;-122.260;2023-04-03T06:44:51;8.70;85.10
54006;DHT22;39919;38.160;-122.260;2023-04-03T06:47:21;8.70;85.40
54006;DHT22;39919;38.160;-122.260;2023-04-03T06:49:53;8.60;85.40
54006;DHT22;39919;38.160;-122.260;2023-04-03T06:52:23;8.70;85.10
54006;DHT22;39919;38.160;-122.260;2023-04-03T06:54:54;8.60;84.90
54006;DHT22;39919;38.160;-122.260;2023-04-03T06:57:24;8.60;84.90
54006;DHT22;39919;38.160;-122.260;2023-04-03T06:59:53;8.60;85.10
54006;DHT22;39919;38.160;-122.260;2023-04-03T07:02:27;8.60;85.30
54006;DHT22;39919;38.160;-122.260;2023-04-03T07:04:56;8.50;85.40
54006;DHT22;39919;38.160;-122.260;2023-04-03T07:07:25;8.50;85.50
54006;DHT22;39919;38.160;-122.260;2023-04-03T07:09:56;8.50;85.90
54006;DHT22;39919;38.160;-122.260;2023-04-03T07:12:26;8.50;86.10
54006;DHT22;39919;38.160;-122.260;2023-04-03T07:14:55;8.40;86.00
54006;DHT22;39919;38.160;-122.260;2023-04-03T07:17:36;8.40;86.10
54006;DHT22;39919;38.160;-122.260;2023-04-03T07:20:11;8.40;86.20
54006;DHT22;39919;38.160;-122.260;2023-04-03T07:22:45;8.40;86.40
54006;DHT22;39919;38.160;-122.260;2023-04-03T07:25:19;8.40;86.70
54006;DHT22;39919;38.160;-122.260;2023-04-03T07:27:51;8.40;86.90
54006;DHT22;39919;38.160;-122.260;2023-04-03T07:30:21;8.40;87.00
54006;DHT22;39919;38.160;-122.260;2023-04-03T07:32:50;8.30;86.70
54006;DHT22;39919;38.160;-122.260;2023-04-03T07:35:20;8.30;86.90
54006;DHT22;39919;38.160;-122.260;2023-04-03T07:37:49;8.30;86.40
54006;DHT22;39919;38.160;-122.260;2023-04-03T07:40:22;8.30;87.10
54006;DHT22;39919;38.160;-122.260;2023-04-03T07:42:59;8.30;86.60
54006;DHT22;39919;38.160;-122.260;2023-04-03T07:45:29;8.30;86.60
54006;DHT22;39919;38.160;-122.260;2023-04-03T07:47:58;8.20;86.60
54006;DHT22;39919;38.160;-122.260;2023-04-03T07:50:29;8.20;86.70
54006;DHT22;39919;38.160;-122.260;2023-04-03T07:53:04;8.20;86.80
54006;DHT22;39919;38.160;-122.260;2023-04-03T07:55:36;8.20;86.90
54006;DHT22;39919;38.160;-122.260;2023-04-03T07:58:10;8.10;87.00
54006;DHT22;39919;38.160;-122.260;2023-04-03T08:00:39;8.10;87.10
54006;DHT22;39919;38.160;-122.260;2023-04-03T08:03:10;8.10;87.10
54006;DHT22;39919;38.160;-122.260;2023-04-03T08:05:40;8.00;87.20
54006;DHT22;39919;38.160;-122.260;2023-04-03T08:08:11;8.00;87.30
54006;DHT22;39919;38.160;-122.260;2023-04-03T08:10:42;8.00;87.50
54006;DHT22;39919;38.160;-122.260;2023-04-03T08:13:11;8.00;87.70
54006;DHT22;39919;38.160;-122.260;2023-04-03T08:15:40;7.90;87.80
54006;DHT22;39919;38.160;-122.260;2023-04-03T08:18:10;7.90;87.90
54006;DHT22;39919;38.160;-122.260;2023-04-03T08:20:42;7.90;88.10
54006;DHT22;39919;38.160;-122.260;2023-04-03T08:23:11;7.80;88.30
54006;DHT22;39919;38.160;-122.260;2023-04-03T08:25:44;7.80;88.60
54006;DHT22;39919;38.160;-122.260;2023-04-03T08:28:13;7.80;89.00
54006;DHT22;39919;38.160;-122.260;2023-04-03T08:30:43;7.80;89.00
54006;DHT22;39919;38.160;-122.260;2023-04-03T08:33:14;7.70;88.60
54006;DHT22;39919;38.160;-122.260;2023-04-03T08:35:43;7.70;88.10
54006;DHT22;39919;38.160;-122.260;2023-04-03T08:38:12;7.70;87.70
54006;DHT22;39919;38.160;-122.260;2023-04-03T08:40:43;7.60;87.30
54006;DHT22;39919;38.160;-122.260;2023-04-03T08:43:33;7.60;87.20
54006;DHT22;39919;38.160;-122.260;2023-04-03T08:46:09;7.60;87.30
54006;DHT22;39919;38.160;-122.260;2023-04-03T08:48:41;7.60;87.30
54006;DHT22;39919;38.160;-122.260;2023-04-03T08:51:14;7.60;87.00
54006;DHT22;39919;38.160;-122.260;2023-04-03T08:53:55;7.60;86.40
54006;DHT22;39919;38.160;-122.260;2023-04-03T08:56:28;7.50;86.30
54006;DHT22;39919;38.160;-122.260;2023-04-03T08:59:03;7.50;86.00
54006;DHT22;39919;38.160;-122.260;2023-04-03T09:01:37;7.50;85.80
54006;DHT22;39919;38.160;-122.260;2023-04-03T09:04:11;7.50;86.20
54006;DHT22;39919;38.160;-122.260;2023-04-03T09:06:44;7.50;86.80
54006;DHT22;39919;38.160;-122.260;2023-04-03T09:09:20;7.50;87.20
54006;DHT22;39919;38.160;-122.260;2023-04-03T09:11:59;7.40;87.20
54006;DHT22;39919;38.160;-122.260;2023-04-03T09:14:33;7.40;87.00
54006;DHT22;39919;38.160;-122.260;2023-04-03T09:17:11;7.40;87.50
54006;DHT22;39919;38.160;-122.260;2023-04-03T09:19:47;7.40;86.70
54006;DHT22;39919;38.160;-122.260;2023-04-03T09:22:27;7.40;86.30
54006;DHT22;39919;38.160;-122.260;2023-04-03T09:25:12;7.40;86.30
54006;DHT22;39919;38.160;-122.260;2023-04-03T09:27:44;7.30;86.30
54006;DHT22;39919;38.160;-122.260;2023-04-03T09:30:15;7.30;86.20
54006;DHT22;39919;38.160;-122.260;2023-04-03T09:32:51;7.30;86.00
54006;DHT22;39919;38.160;-122.260;2023-04-03T09:35:23;7.30;86.00
54006;DHT22;39919;38.160;-122.260;2023-04-03T09:37:54;7.30;86.10
54006;DHT22;39919;38.160;-122.260;2023-04-03T09:40:35;7.20;85.80
54006;DHT22;39919;38.160;-122.260;2023-04-03T09:43:27;7.20;85.40
54006;DHT22;39919;38.160;-122.260;2023-04-03T09:48:51;7.20;84.90
54006;DHT22;39919;38.160;-122.260;2023-04-03T09:51:20;7.20;84.80
54006;DHT22;39919;38.160;-122.260;2023-04-03T09:53:53;7.20;84.60
54006;DHT22;39919;38.160;-122.260;2023-04-03T09:56:25;7.20;84.20
54006;DHT22;39919;38.160;-122.260;2023-04-03T09:59:13;7.20;83.70
54006;DHT22;39919;38.160;-122.260;2023-04-03T10:01:55;7.20;83.30
54006;DHT22;39919;38.160;-122.260;2023-04-03T10:04:25;7.10;83.30
54006;DHT22;39919;38.160;-122.260;2023-04-03T10:06:57;7.10;83.10
54006;DHT22;39919;38.160;-122.260;2023-04-03T10:09:28;7.20;82.90
54006;DHT22;39919;38.160;-122.260;2023-04-03T10:12:02;7.10;82.60
54006;DHT22;39919;38.160;-122.260;2023-04-03T10:14:39;7.10;83.10
54006;DHT22;39919;38.160;-122.260;2023-04-03T10:17:18;7.10;82.20
54006;DHT22;39919;38.160;-122.260;2023-04-03T10:19:53;7.10;82.20
54006;DHT22;39919;38.160;-122.260;2023-04-03T10:22:36;7.10;82.70
54006;DHT22;39919;38.160;-122.260;2023-04-03T10:25:15;7.10;83.20
54006;DHT22;39919;38.160;-122.260;2023-04-03T10:27:58;7.10;83.60
54006;DHT22;39919;38.160;-122.260;2023-04-03T10:30:35;7.10;83.50
54006;DHT22;39919;38.160;-122.260;2023-04-03T10:33:31;7.00;83.60
54006;DHT22;39919;38.160;-122.260;2023-04-03T10:36:15;7.00;83.60
54006;DHT22;39919;38.160;-122.260;2023-04-03T10:38:53;7.00;83.80
54006;DHT22;39919;38.160;-122.260;2023-04-03T10:41:33;7.00;83.50
54006;DHT22;39919;38.160;-122.260;2023-04-03T10:44:11;6.90;83.20
54006;DHT22;39919;38.160;-122.260;2023-04-03T10:46:46;6.90;82.90
54006;DHT22;39919;38.160;-122.260;2023-04-03T10:49:32;6.90;83.30
54006;DHT22;39919;38.160;-122.260;2023-04-03T10:52:08;6.90;83.60
54006;DHT22;39919;38.160;-122.260;2023-04-03T10:54:46;6.90;83.50
54006;DHT22;39919;38.160;-122.260;2023-04-03T10:57:17;6.90;83.50
54006;DHT22;39919;38.160;-122.260;2023-04-03T10:59:48;6.80;83.40
54006;DHT22;39919;38.160;-122.260;2023-04-03T11:02:27;6.80;83.30
54006;DHT22;39919;38.160;-122.260;2023-04-03T11:05:05;6.80;83.20
54006;DHT22;39919;38.160;-122.260;2023-04-03T11:07:40;6.80;83.10
54006;DHT22;39919;38.160;-122.260;2023-04-03T11:10:15;6.70;83.10
54006;DHT22;39919;38.160;-122.260;2023-04-03T11:12:54;6.70;83.10
54006;DHT22;39919;38.160;-122.260;2023-04-03T11:15:32;6.70;83.30
54006;DHT22;39919;38.160;-122.260;2023-04-03T11:18:09;6.60;83.20
54006;DHT22;39919;38.160;-122.260;2023-04-03T11:20:58;6.60;83.30
54006;DHT22;39919;38.160;-122.260;2023-04-03T11:23:32;6.60;83.10
54006;DHT22;39919;38.160;-122.260;2023-04-03T11:26:10;6.60;82.60
54006;DHT22;39919;38.160;-122.260;2023-04-03T11:28:40;6.60;82.40
54006;DHT22;39919;38.160;-122.260;2023-04-03T11:31:32;6.60;82.20
54006;DHT22;39919;38.160;-122.260;2023-04-03T11:34:19;6.50;82.50
54006;DHT22;39919;38.160;-122.260;2023-04-03T11:36:56;6.50;82.70
54006;DHT22;39919;38.160;-122.260;2023-04-03T11:39:31;6.40;82.70
54006;DHT22;39919;38.160;-122.260;2023-04-03T11:42:15;6.50;82.60
54006;DHT22;39919;38.160;-122.260;2023-04-03T11:44:45;6.40;82.30
54006;DHT22;39919;38.160;-122.260;2023-04-03T11:47:45;6.40;82.30
54006;DHT22;39919;38.160;-122.260;2023-04-03T11:50:43;6.40;82.50
54006;DHT22;39919;38.160;-122.260;2023-04-03T11:53:34;6.30;82.40
54006;DHT22;39919;38.160;-122.260;2023-04-03T11:56:32;6.30;81.50
54006;DHT22;39919;38.160;-122.260;2023-04-03T11:59:23;6.30;81.00
54006;DHT22;39919;38.160;-122.260;2023-04-03T12:01:53;6.30;80.40
54006;DHT22;39919;38.160;-122.260;2023-04-03T12:04:24;6.30;80.20
54006;DHT22;39919;38.160;-122.260;2023-04-03T12:07:12;6.20;80.10
54006;DHT22;39919;38.160;-122.260;2023-04-03T12:10:17;6.20;80.00
54006;DHT22;39919;38.160;-122.260;2023-04-03T12:12:59;6.20;79.50
54006;DHT22;39919;38.160;-122.260;2023-04-03T12:15:49;6.20;79.10
54006;DHT22;39919;38.160;-122.260;2023-04-03T12:18:59;6.20;78.90
54006;DHT22;39919;38.160;-122.260;2023-04-03T12:24:38;6.20;78.70
54006;DHT22;39919;38.160;-122.260;2023-04-03T12:27:34;6.20;78.50
54006;DHT22;39919;38.160;-122.260;2023-04-03T12:30:21;6.10;78.40
54006;DHT22;39919;38.160;-122.260;2023-04-03T12:33:18;6.10;78.40
54006;DHT22;39919;38.160;-122.260;2023-04-03T12:35:58;6.10;78.50
54006;DHT22;39919;38.160;-122.260;2023-04-03T12:38:47;6.10;78.40
54006;DHT22;39919;38.160;-122.260;2023-04-03T12:41:25;6.10;78.60
54006;DHT22;39919;38.160;-122.260;2023-04-03T12:44:08;6.10;78.80
54006;DHT22;39919;38.160;-122.260;2023-04-03T12:46:49;6.10;78.70
54006;DHT22;39919;38.160;-122.260;2023-04-03T12:49:33;6.10;78.60
54006;DHT22;39919;38.160;-122.260;2023-04-03T12:52:06;6.00;78.50
54006;DHT22;39919;38.160;-122.260;2023-04-03T12:54:37;6.00;78.40
54006;DHT22;39919;38.160;-122.260;2023-04-03T12:57:20;6.00;78.10
54006;DHT22;39919;38.160;-122.260;2023-04-03T12:59:49;5.90;77.80
54006;DHT22;39919;38.160;-122.260;2023-04-03T13:02:28;5.90;77.90
54006;DHT22;39919;38.160;-122.260;2023-04-03T13:05:02;5.90;78.00
54006;DHT22;39919;38.160;-122.260;2023-04-03T13:07:34;5.90;78.00
54006;DHT22;39919;38.160;-122.260;2023-04-03T13:10:15;5.80;77.80
54006;DHT22;39919;38.160;-122.260;2023-04-03T13:12:53;5.90;77.80
54006;DHT22;39919;38.160;-122.260;2023-04-03T13:15:24;5.80;77.70
54006;DHT22;39919;38.160;-122.260;2023-04-03T13:17:54;5.80;77.70
54006;DHT22;39919;38.160;-122.260;2023-04-03T13:20:26;5.80;77.80
54006;DHT22;39919;38.160;-122.260;2023-04-03T13:23:01;5.80;77.80
54006;DHT22;39919;38.160;-122.260;2023-04-03T13:25:37;5.80;77.90
54006;DHT22;39919;38.160;-122.260;2023-04-03T13:28:13;5.80;78.10
54006;DHT22;39919;38.160;-122.260;2023-04-03T13:31:02;5.70;78.10
54006;DHT22;39919;38.160;-122.260;2023-04-03T13:33:34;5.70;78.30
54006;DHT22;39919;38.160;-122.260;2023-04-03T13:36:07;5.70;78.50
54006;DHT22;39919;38.160;-122.260;2023-04-03T13:38:37;5.70;78.60
54006;DHT22;39919;38.160;-122.260;2023-04-03T13:41:24;5.70;78.60
54006;DHT22;39919;38.160;-122.260;2023-04-03T13:44:33;5.70;78.40
54006;DHT22;39919;38.160;-122.260;2023-04-03T13:47:17;5.70;78.40
54006;DHT22;39919;38.160;-122.260;2023-04-03T13:49:59;5.60;78.40
54006;DHT22;39919;38.160;-122.260;2023-04-03T13:52:32;5.60;78.50
54006;DHT22;39919;38.160;-122.260;2023-04-03T13:55:11;5.60;78.40
54006;DHT22;39919;38.160;-122.260;2023-04-03T13:57:55;5.60;78.40
54006;DHT22;39919;38.160;-122.260;2023-04-03T14:00:36;5.50;78.60
54006;DHT22;39919;38.160;-122.260;2023-04-03T14:03:17;5.50;78.80
54006;DHT22;39919;38.160;-122.260;2023-04-03T14:05:48;5.50;79.00
54006;DHT22;39919;38.160;-122.260;2023-04-03T14:08:17;5.50;79.10
54006;DHT22;39919;38.160;-122.260;2023-04-03T14:10:47;5.50;78.90
54006;DHT22;39919;38.160;-122.260;2023-04-03T14:13:17;5.50;78.80
54006;DHT22;39919;38.160;-122.260;2023-04-03T14:15:49;5.50;78.60
54006;DHT22;39919;38.160;-122.260;2023-04-03T14:18:20;5.50;78.80
54006;DHT22;39919;38.160;-122.260;2023-04-03T14:20:50;5.50;79.10
54006;DHT22;39919;38.160;-122.260;2023-04-03T14:23:19;5.50;79.20
54006;DHT22;39919;38.160;-122.260;2023-04-03T14:25:48;5.50;79.40
54006;DHT22;39919;38.160;-122.260;2023-04-03T14:28:21;5.50;79.40
54006;DHT22;39919;38.160;-122.260;2023-04-03T14:30:52;5.50;79.30
54006;DHT22;39919;38.160;-122.260;2023-04-03T14:33:22;5.50;79.50
54006;DHT22;39919;38.160;-122.260;2023-04-03T14:36:01;5.60;79.60
54006;DHT22;39919;38.160;-122.260;2023-04-03T14:38:36;5.60;79.50
54006;DHT22;39919;38.160;-122.260;2023-04-03T14:41:06;5.60;79.50
54006;DHT22;39919;38.160;-122.260;2023-04-03T14:43:40;5.60;79.20
54006;DHT22;39919;38.160;-122.260;2023-04-03T14:46:17;5.70;78.70
54006;DHT22;39919;38.160;-122.260;2023-04-03T14:48:46;5.70;78.40
54006;DHT22;39919;38.160;-122.260;2023-04-03T14:51:16;5.80;77.80
54006;DHT22;39919;38.160;-122.260;2023-04-03T14:53:48;5.80;77.90
54006;DHT22;39919;38.160;-122.260;2023-04-03T14:56:21;5.80;77.90
54006;DHT22;39919;38.160;-122.260;2023-04-03T14:58:59;5.90;77.20
54006;DHT22;39919;38.160;-122.260;2023-04-03T15:01:30;5.90;76.60
54006;DHT22;39919;38.160;-122.260;2023-04-03T15:04:00;6.00;76.90
54006;DHT22;39919;38.160;-122.260;2023-04-03T15:06:36;6.10;76.80
54006;DHT22;39919;38.160;-122.260;2023-04-03T15:09:05;6.10;76.60
54006;DHT22;39919;38.160;-122.260;2023-04-03T15:11:40;6.10;75.90
54006;DHT22;39919;38.160;-122.260;2023-04-03T15:14:10;6.20;75.80
54006;DHT22;39919;38.160;-122.260;2023-04-03T15:16:59;6.30;75.50
54006;DHT22;39919;38.160;-122.260;2023-04-03T15:19:30;6.40;75.80
54006;DHT22;39919;38.160;-122.260;2023-04-03T15:22:08;6.50;75.90
54006;DHT22;39919;38.160;-122.260;2023-04-03T15:24:40;6.50;75.80
54006;DHT22;39919;38.160;-122.260;2023-04-03T15:27:10;6.60;75.30
54006;DHT22;39919;38.160;-122.260;2023-04-03T15:29:40;6.70;75.40
54006;DHT22;39919;38.160;-122.260;2023-04-03T15:32:12;6.80;75.30
54006;DHT22;39919;38.160;-122.260;2023-04-03T15:34:41;6.90;75.30
54006;DHT22;39919;38.160;-122.260;2023-04-03T15:37:10;7.00;76.00
54006;DHT22;39919;38.160;-122.260;2023-04-03T15:39:39;7.30;76.50
54006;DHT22;39919;38.160;-122.260;2023-04-03T15:42:12;8.10;74.40
54006;DHT22;39919;38.160;-122.260;2023-04-03T15:44:43;9.10;73.30
54006;DHT22;39919;38.160;-122.260;2023-04-03T15:47:23;10.20;69.00
54006;DHT22;39919;38.160;-122.260;2023-04-03T15:49:53;11.50;67.30
54006;DHT22;39919;38.160;-122.260;2023-04-03T15:52:23;12.70;61.60
54006;DHT22;39919;38.160;-122.260;2023-04-03T15:54:52;14.00;87.60
54006;DHT22;39919;38.160;-122.260;2023-04-03T15:57:21;15.10;55.20
54006;DHT22;39919;38.160;-122.260;2023-04-03T15:59:53;16.20;53.10
54006;DHT22;39919;38.160;-122.260;2023-04-03T16:05:09;18.20;49.50
54006;DHT22;39919;38.160;-122.260;2023-04-03T16:07:39;19.20;48.10
54006;DHT22;39919;38.160;-122.260;2023-04-03T16:10:16;20.10;45.60
54006;DHT22;39919;38.160;-122.260;2023-04-03T16:12:52;21.00;44.20
54006;DHT22;39919;38.160;-122.260;2023-04-03T16:15:21;21.80;43.30
54006;DHT22;39919;38.160;-122.260;2023-04-03T16:17:53;22.50;41.00
54006;DHT22;39919;38.160;-122.260;2023-04-03T16:20:33;23.10;38.50
54006;DHT22;39919;38.160;-122.260;2023-04-03T16:23:03;23.70;40.30
54006;DHT22;39919;38.160;-122.260;2023-04-03T16:25:43;24.30;38.60
54006;DHT22;39919;38.160;-122.260;2023-04-03T16:28:14;24.80;35.50
54006;DHT22;39919;38.160;-122.260;2023-04-03T16:30:46;25.30;38.20
54006;DHT22;39919;38.160;-122.260;2023-04-03T16:33:20;25.90;37.90
54006;DHT22;39919;38.160;-122.260;2023-04-03T16:35:52;26.40;36.90
54006;DHT22;39919;38.160;-122.260;2023-04-03T16:38:22;27.00;37.00
54006;DHT22;39919;38.160;-122.260;2023-04-03T16:40:56;27.50;36.40
54006;DHT22;39919;38.160;-122.260;2023-04-03T16:43:32;28.00;35.60
54006;DHT22;39919;38.160;-122.260;2023-04-03T16:46:04;28.50;36.30
54006;DHT22;39919;38.160;-122.260;2023-04-03T16:48:38;29.00;35.90
54006;DHT22;39919;38.160;-122.260;2023-04-03T16:51:11;29.50;34.40
54006;DHT22;39919;38.160;-122.260;2023-04-03T16:53:41;29.90;33.30
54006;DHT22;39919;38.160;-122.260;2023-04-03T16:56:10;30.70;58.50
54006;DHT22;39919;38.160;-122.260;2023-04-03T16:58:45;30.60;33.60
54006;DHT22;39919;38.160;-122.260;2023-04-03T17:01:18;30.80;33.00
54006;DHT22;39919;38.160;-122.260;2023-04-03T17:03:51;31.00;33.00
54006;DHT22;39919;38.160;-122.260;2023-04-03T17:06:21;31.40;30.90
54006;DHT22;39919;38.160;-122.260;2023-04-03T17:08:51;31.60;33.60
54006;DHT22;39919;38.160;-122.260;2023-04-03T17:11:20;31.90;33.80
54006;DHT22;39919;38.160;-122.260;2023-04-03T17:13:50;32.10;31.20
54006;DHT22;39919;38.160;-122.260;2023-04-03T17:16:19;32.30;33.70
54006;DHT22;39919;38.160;-122.260;2023-04-03T17:18:52;32.60;32.30
54006;DHT22;39919;38.160;-122.260;2023-04-03T17:21:23;32.80;31.30
54006;DHT22;39919;38.160;-122.260;2023-04-03T17:23:57;32.90;32.80
54006;DHT22;39919;38.160;-122.260;2023-04-03T17:26:34;33.20;33.20
54006;DHT22;39919;38.160;-122.260;2023-04-03T17:29:08;33.50;33.20
54006;DHT22;39919;38.160;-122.260;2023-04-03T17:31:37;33.80;42.70
54006;DHT22;39919;38.160;-122.260;2023-04-03T17:34:13;34.10;46.00
54006;DHT22;39919;38.160;-122.260;2023-04-03T17:36:44;34.40;63.30
54006;DHT22;39919;38.160;-122.260;2023-04-03T20:46:26;20.20;35.10
54006;DHT22;39919;38.160;-122.260;2023-04-03T20:48:55;19.80;35.30
54006;DHT22;39919;38.160;-122.260;2023-04-03T20:51:25;19.60;35.20
54006;DHT22;39919;38.160;-122.260;2023-04-03T20:53:55;19.40;35.70
54006;DHT22;39919;38.160;-122.260;2023-04-03T20:56:24;19.20;36.30
54006;DHT22;39919;38.160;-122.260;2023-04-03T20:58:56;19.10;36.30
54006;DHT22;39919;38.160;-122.260;2023-04-03T21:01:30;18.90;34.90
54006;DHT22;39919;38.160;-122.260;2023-04-03T21:04:05;18.80;35.90
54006;DHT22;39919;38.160;-122.260;2023-04-03T21:21:24;18.20;37.50
54006;DHT22;39919;38.160;-122.260;2023-04-03T21:23:54;18.10;38.00
54006;DHT22;39919;38.160;-122.260;2023-04-03T21:26:28;18.10;37.50
54006;DHT22;39919;38.160;-122.260;2023-04-03T21:29:02;18.00;37.00
54006;DHT22;39919;38.160;-122.260;2023-04-03T21:31:51;17.90;37.20
54006;DHT22;39919;38.160;-122.260;2023-04-03T21:34:27;17.90;36.70
54006;DHT22;39919;38.160;-122.260;2023-04-03T21:37:01;17.90;37.60
54006;DHT22;39919;38.160;-122.260;2023-04-03T21:39:35;17.90;38.30
54006;DHT22;39919;38.160;-122.260;2023-04-03T21:42:04;17.90;37.90
54006;DHT22;39919;38.160;-122.260;2023-04-03T21:44:35;17.90;37.50
54006;DHT22;39919;38.160;-122.260;2023-04-03T21:47:08;17.90;37.40
54006;DHT22;39919;38.160;-122.260;2023-04-03T21:49:42;17.90;37.70
54006;DHT22;39919;38.160;-122.260;2023-04-03T21:52:16;17.90;37.40
54006;DHT22;39919;38.160;-122.260;2023-04-03T21:54:48;17.80;37.80
54006;DHT22;39919;38.160;-122.260;2023-04-03T21:57:20;17.80;38.20
54006;DHT22;39919;38.160;-122.260;2023-04-03T21:59:49;17.80;39.00
54006;DHT22;39919;38.160;-122.260;2023-04-03T22:02:19;17.80;38.40
54006;DHT22;39919;38.160;-122.260;2023-04-03T22:04:50;17.80;38.60
54006;DHT22;39919;38.160;-122.260;2023-04-03T22:07:20;17.80;38.60
54006;DHT22;39919;38.160;-122.260;2023-04-03T22:09:49;17.90;36.70